createdAt,value
2022-07-30T00:01:44.226Z,2.70
2022-07-30T00:04:10.975Z,2.30
2022-07-30T00:09:24.657Z,2.77
2022-07-30T00:11:51.403Z,2.70
2022-07-30T00:14:18.126Z,2.60
2022-07-30T00:16:47.696Z,3.07
2022-07-30T00:19:15.861Z,2.40
2022-07-30T00:21:43.646Z,2.73
2022-07-30T00:24:11.295Z,3.47
2022-07-30T00:26:39.253Z,3.87
2022-07-30T00:31:51.733Z,3.87
2022-07-30T00:37:03.173Z,3.57
2022-07-30T00:39:30.712Z,4.10
2022-07-30T00:41:58.535Z,3.67
2022-07-30T00:44:27.272Z,3.80
2022-07-30T00:46:54.117Z,3.53
2022-07-30T00:49:22.640Z,3.70
2022-07-30T00:51:50.123Z,3.23
2022-07-30T00:54:17.057Z,3.23
2022-07-30T00:56:46.074Z,2.90
2022-07-30T00:59:13.977Z,3.20
2022-07-30T01:01:40.712Z,2.90
2022-07-30T01:04:11.657Z,2.90
2022-07-30T01:06:39.512Z,2.60
2022-07-30T01:09:06.896Z,2.40
2022-07-30T01:11:35.647Z,2.23
2022-07-30T01:14:03.660Z,2.80
2022-07-30T01:16:30.557Z,2.70
2022-07-30T01:19:16.288Z,2.10
2022-07-30T01:21:44.196Z,2.03
2022-07-30T01:24:37.273Z,2.50
2022-07-30T01:27:05.058Z,2.13
2022-07-30T01:29:33.563Z,2.53
2022-07-30T01:32:00.378Z,2.50
2022-07-30T01:34:31.409Z,2.20
2022-07-30T01:39:43.674Z,2.40
2022-07-30T01:42:11.551Z,1.97
2022-07-30T01:44:38.469Z,2.30
2022-07-30T01:47:06.543Z,2.27
2022-07-30T01:49:35.226Z,2.20
2022-07-30T01:52:02.659Z,2.43
2022-07-30T01:54:29.517Z,2.20
2022-07-30T01:56:56.528Z,2.17
2022-07-30T01:59:24.009Z,2.10
2022-07-30T02:01:53.101Z,2.13
2022-07-30T02:04:19.984Z,2.30
2022-07-30T02:09:37.319Z,2.33
2022-07-30T02:15:15.381Z,2.67
2022-07-30T02:17:45.267Z,2.40
2022-07-30T02:20:13.715Z,2.20
2022-07-30T02:22:41.290Z,2.30
2022-07-30T02:25:08.945Z,2.17
2022-07-30T02:27:36.036Z,2.00
2022-07-30T02:30:05.408Z,1.80
2022-07-30T02:32:34.026Z,1.47
2022-07-30T02:35:01.255Z,1.90
2022-07-30T02:37:43.306Z,1.70
2022-07-30T02:40:12.345Z,1.60
2022-07-30T02:42:39.566Z,1.60
2022-07-30T02:45:06.744Z,1.97
2022-07-30T02:47:33.472Z,1.40
2022-07-30T02:50:03.521Z,1.60
2022-07-30T02:52:30.231Z,1.90
2022-07-30T02:54:57.199Z,1.63
2022-07-30T02:57:24.975Z,1.60
2022-07-30T02:59:51.930Z,1.57
2022-07-30T03:02:18.768Z,1.67
2022-07-30T03:04:56.428Z,1.70
2022-07-30T03:07:25.359Z,1.70
2022-07-30T03:09:52.740Z,1.60
2022-07-30T03:12:20.099Z,2.13
2022-07-30T03:14:46.958Z,1.70
2022-07-30T03:17:15.151Z,1.50
2022-07-30T03:19:43.571Z,1.60
2022-07-30T03:24:54.590Z,1.70
2022-07-30T03:27:21.373Z,1.97
2022-07-30T03:29:48.838Z,1.60
2022-07-30T03:32:15.559Z,2.00
2022-07-30T03:34:43.783Z,1.70
2022-07-30T03:37:11.776Z,1.70
2022-07-30T03:39:39.027Z,1.47
2022-07-30T03:42:06.740Z,1.40
2022-07-30T03:47:20.527Z,1.87
2022-07-30T03:49:48.386Z,1.50
2022-07-30T03:52:16.870Z,1.70
2022-07-30T03:54:43.629Z,1.77
2022-07-30T03:57:36.627Z,1.50
2022-07-30T04:00:14.005Z,1.73
2022-07-30T04:05:45.918Z,2.33
2022-07-30T04:08:13.990Z,3.83
2022-07-30T04:10:42.373Z,3.30
2022-07-30T04:13:27.691Z,1.97
2022-07-30T04:16:04.987Z,3.03
2022-07-30T04:21:32.396Z,2.60
2022-07-30T04:24:03.196Z,2.63
2022-07-30T04:26:33.205Z,2.77
2022-07-30T04:29:00.490Z,2.20
2022-07-30T04:31:28.292Z,2.60
2022-07-30T04:34:02.908Z,2.30
2022-07-30T04:36:38.827Z,2.10
2022-07-30T04:39:06.609Z,2.20
2022-07-30T04:41:35.446Z,1.80
2022-07-30T04:44:35.051Z,1.60
2022-07-30T04:47:20.383Z,1.70
2022-07-30T04:50:00.501Z,1.80
2022-07-30T04:55:16.449Z,1.60
2022-07-30T04:57:46.422Z,1.70
2022-07-30T05:00:13.353Z,1.60
2022-07-30T05:02:41.726Z,1.50
2022-07-30T05:05:09.047Z,1.60
2022-07-30T05:07:35.937Z,1.67
2022-07-30T05:10:03.047Z,1.50
2022-07-30T05:12:33.874Z,1.53
2022-07-30T05:15:01.087Z,0.90
2022-07-30T05:17:27.981Z,1.00
2022-07-30T05:19:56.800Z,1.10
2022-07-30T05:22:25.716Z,1.00
2022-07-30T05:24:52.570Z,0.70
2022-07-30T05:27:20.534Z,0.80
2022-07-30T05:29:47.340Z,0.80
2022-07-30T05:32:18.555Z,0.70
2022-07-30T05:34:50.105Z,0.87
2022-07-30T05:37:18.379Z,0.80
2022-07-30T05:39:58.782Z,0.60
2022-07-30T05:42:43.044Z,0.80
2022-07-30T05:45:10.022Z,0.70
2022-07-30T05:47:38.795Z,0.67
2022-07-30T05:50:05.869Z,0.83
2022-07-30T05:52:32.993Z,0.50
2022-07-30T05:55:09.283Z,0.70
2022-07-30T05:57:51.265Z,0.77
2022-07-30T06:00:18.602Z,0.77
2022-07-30T06:02:49.586Z,0.50
2022-07-30T06:08:10.158Z,0.60
2022-07-30T06:10:40.853Z,0.70
2022-07-30T06:13:10.888Z,0.70
2022-07-30T06:15:37.758Z,0.73
2022-07-30T06:18:04.701Z,0.70
2022-07-30T06:20:41.427Z,1.43
2022-07-30T06:23:15.613Z,1.30
2022-07-30T06:26:15.146Z,0.90
2022-07-30T06:28:41.885Z,0.90
2022-07-30T06:31:19.652Z,0.90
2022-07-30T06:33:46.664Z,1.00
2022-07-30T06:36:14.681Z,0.70
2022-07-30T06:39:00.579Z,1.03
2022-07-30T06:41:46.254Z,1.10
2022-07-30T06:44:14.609Z,1.10
2022-07-30T06:47:11.061Z,1.00
2022-07-30T06:52:26.914Z,1.00
2022-07-30T06:54:54.763Z,1.00
2022-07-30T06:57:40.138Z,0.73
2022-07-30T07:00:27.536Z,0.60
2022-07-30T07:02:55.679Z,0.80
2022-07-30T07:05:34.909Z,0.80
2022-07-30T07:08:01.647Z,0.80
2022-07-30T07:10:33.747Z,0.67
2022-07-30T07:13:14.256Z,0.80
2022-07-30T07:15:41.033Z,0.73
2022-07-30T07:18:13.121Z,0.60
2022-07-30T07:20:46.788Z,0.80
2022-07-30T07:23:13.875Z,0.70
2022-07-30T07:25:41.855Z,0.60
2022-07-30T07:28:12.660Z,0.70
2022-07-30T07:30:44.637Z,0.70
2022-07-30T07:33:15.693Z,0.70
2022-07-30T07:35:49.362Z,0.57
2022-07-30T07:38:31.646Z,0.80
2022-07-30T07:40:59.341Z,0.70
2022-07-30T07:43:27.400Z,0.80
2022-07-30T07:45:57.607Z,0.67
2022-07-30T07:48:27.422Z,0.70
2022-07-30T07:51:09.666Z,0.90
2022-07-30T07:53:38.360Z,0.90
2022-07-30T07:56:08.510Z,0.80
2022-07-30T07:58:36.134Z,0.70
2022-07-30T08:01:05.234Z,0.70
2022-07-30T08:04:10.471Z,0.57
2022-07-30T08:07:07.346Z,0.67
2022-07-30T08:10:00.340Z,0.70
2022-07-30T08:12:46.116Z,0.60
2022-07-30T08:15:31.612Z,0.63
2022-07-30T08:18:18.814Z,0.67
2022-07-30T08:20:53.697Z,0.70
2022-07-30T08:23:25.866Z,0.63
2022-07-30T08:25:53.571Z,0.77
2022-07-30T08:28:35.934Z,0.60
2022-07-30T08:31:04.849Z,0.33
2022-07-30T08:33:31.931Z,0.80
2022-07-30T08:36:02.946Z,0.60
2022-07-30T08:38:32.625Z,0.60
2022-07-30T08:40:59.888Z,0.40
2022-07-30T08:43:29.451Z,0.50
2022-07-30T08:45:58.534Z,0.60
2022-07-30T08:48:39.280Z,0.70
2022-07-30T08:51:06.273Z,0.50
2022-07-30T08:53:33.599Z,0.57
2022-07-30T08:56:00.868Z,0.50
2022-07-30T08:58:31.120Z,0.50
2022-07-30T09:00:58.106Z,0.60
2022-07-30T09:03:28.469Z,0.60
2022-07-30T09:05:59.051Z,0.50
2022-07-30T09:08:27.861Z,0.60
2022-07-30T09:10:55.522Z,0.60
2022-07-30T09:13:25.799Z,0.70
2022-07-30T09:15:52.724Z,0.80
2022-07-30T09:18:29.956Z,0.53
2022-07-30T09:20:58.494Z,0.53
2022-07-30T09:23:26.336Z,0.50
2022-07-30T09:26:13.098Z,0.77
2022-07-30T09:28:45.856Z,0.60
2022-07-30T09:31:31.474Z,0.50
2022-07-30T09:34:23.304Z,0.50
2022-07-30T09:37:02.883Z,0.60
2022-07-30T09:39:59.021Z,0.57
2022-07-30T09:42:44.986Z,0.80
2022-07-30T09:45:13.685Z,0.60
2022-07-30T09:47:49.518Z,0.70
2022-07-30T09:50:30.228Z,0.67
2022-07-30T09:53:09.444Z,0.57
2022-07-30T09:55:42.061Z,0.50
2022-07-30T09:58:13.056Z,0.50
2022-07-30T10:00:47.179Z,0.57
2022-07-30T10:03:44.189Z,0.70
2022-07-30T10:09:45.313Z,0.60
2022-07-30T10:12:14.977Z,0.53
2022-07-30T10:14:47.491Z,0.50
2022-07-30T10:20:34.924Z,0.50
2022-07-30T10:23:09.110Z,0.60
2022-07-30T10:25:36.458Z,0.60
2022-07-30T10:28:16.463Z,0.60
2022-07-30T10:30:43.715Z,0.50
2022-07-30T10:33:34.191Z,0.63
2022-07-30T10:35:59.289Z,0.80
2022-07-30T10:38:30.481Z,3.00
2022-07-30T10:41:03.199Z,0.60
2022-07-30T10:43:35.503Z,0.70
2022-07-30T10:46:10.471Z,0.53
2022-07-30T10:48:50.590Z,0.50
2022-07-30T10:51:25.274Z,0.67
2022-07-30T10:53:52.619Z,0.80
2022-07-30T10:56:25.527Z,0.57
2022-07-30T10:59:04.410Z,0.70
2022-07-30T11:01:48.672Z,0.50
2022-07-30T11:04:25.626Z,0.50
2022-07-30T11:07:17.310Z,0.90
2022-07-30T11:09:45.280Z,0.70
2022-07-30T11:15:51.251Z,0.67
2022-07-30T11:18:17.982Z,0.70
2022-07-30T11:20:48.653Z,0.80
2022-07-30T11:26:03.991Z,0.60
2022-07-30T11:28:37.750Z,0.60
2022-07-30T11:31:09.979Z,0.60
2022-07-30T11:33:37.810Z,0.70
2022-07-30T11:36:12.330Z,0.60
2022-07-30T11:39:06.872Z,0.57
2022-07-30T11:41:34.147Z,0.70
2022-07-30T11:44:20.094Z,0.80
2022-07-30T11:46:49.848Z,0.60
2022-07-30T11:49:16.975Z,0.60
2022-07-30T11:51:44.530Z,0.70
2022-07-30T11:54:12.704Z,0.60
2022-07-30T11:56:52.510Z,0.70
2022-07-30T11:59:19.340Z,0.60
2022-07-30T12:01:50.839Z,0.60
2022-07-30T12:04:17.581Z,0.70
2022-07-30T12:06:45.060Z,0.70
2022-07-30T12:09:11.874Z,0.57
2022-07-30T12:11:38.620Z,0.70
2022-07-30T12:14:05.983Z,0.70
2022-07-30T12:16:33.018Z,0.93
2022-07-30T12:19:03.600Z,0.83
2022-07-30T12:21:30.703Z,0.70
2022-07-30T12:26:43.147Z,0.50
2022-07-30T12:29:16.729Z,0.73
2022-07-30T12:31:45.348Z,0.70
2022-07-30T12:37:10.134Z,0.80
2022-07-30T12:39:37.285Z,1.63
2022-07-30T12:42:04.283Z,0.97
2022-07-30T12:44:34.745Z,0.80
2022-07-30T12:47:01.875Z,0.60
2022-07-30T12:49:36.694Z,0.60
2022-07-30T12:52:27.780Z,0.97
2022-07-30T12:55:02.477Z,1.17
2022-07-30T12:57:50.698Z,0.70
2022-07-30T13:00:17.671Z,0.70
2022-07-30T13:02:44.714Z,0.60
2022-07-30T13:05:12.479Z,0.87
2022-07-30T13:07:55.472Z,0.80
2022-07-30T13:10:23.450Z,1.10
2022-07-30T13:12:52.953Z,1.53
2022-07-30T13:15:22.828Z,1.07
2022-07-30T13:17:49.783Z,0.70
2022-07-30T13:23:02.143Z,1.07
2022-07-30T13:25:38.724Z,1.00
2022-07-30T13:28:07.245Z,1.13
2022-07-30T13:30:33.990Z,0.80
2022-07-30T13:33:00.736Z,1.00
2022-07-30T13:35:27.895Z,0.70
2022-07-30T13:37:55.016Z,0.70
2022-07-30T13:40:21.950Z,0.67
2022-07-30T13:42:48.980Z,0.70
2022-07-30T13:45:15.774Z,0.63
2022-07-30T13:47:45.127Z,0.57
2022-07-30T13:50:12.022Z,0.80
2022-07-30T13:52:38.863Z,0.73
2022-07-30T13:55:05.813Z,0.80
2022-07-30T13:57:32.562Z,0.90
2022-07-30T14:00:00.626Z,0.63
2022-07-30T14:02:31.320Z,0.83
2022-07-30T14:04:58.794Z,0.60
2022-07-30T14:07:26.634Z,0.60
2022-07-30T14:09:54.711Z,0.70
2022-07-30T14:12:21.983Z,0.70
2022-07-30T14:14:48.725Z,0.63
2022-07-30T14:17:15.467Z,0.80
2022-07-30T14:19:42.198Z,0.80
2022-07-30T14:24:53.864Z,0.80
2022-07-30T14:27:21.396Z,0.80
2022-07-30T14:29:48.159Z,0.87
2022-07-30T14:32:15.004Z,0.90
2022-07-30T14:34:41.873Z,0.90
2022-07-30T14:37:16.635Z,1.20
2022-07-30T14:39:43.350Z,0.80
2022-07-30T14:42:10.071Z,0.57
2022-07-30T14:44:36.864Z,0.87
2022-07-30T14:49:49.361Z,0.80
2022-07-30T14:55:01.462Z,0.70
2022-07-30T14:57:32.962Z,0.70
2022-07-30T15:00:01.357Z,0.80
2022-07-30T15:02:28.048Z,0.63
2022-07-30T15:04:55.722Z,0.80
2022-07-30T15:07:23.334Z,0.77
2022-07-30T15:09:50.116Z,0.70
2022-07-30T15:12:23.587Z,0.60
2022-07-30T15:14:54.324Z,0.90
2022-07-30T15:17:21.081Z,0.67
2022-07-30T15:19:50.543Z,0.80
2022-07-30T15:22:18.789Z,0.70
2022-07-30T15:24:45.617Z,0.70
2022-07-30T15:27:12.438Z,0.60
2022-07-30T15:29:39.327Z,0.80
2022-07-30T15:32:06.605Z,0.60
2022-07-30T15:34:37.282Z,0.70
2022-07-30T15:37:05.783Z,0.60
2022-07-30T15:39:33.278Z,0.70
2022-07-30T15:42:01.158Z,1.00
2022-07-30T15:44:28.228Z,0.80
2022-07-30T15:46:55.157Z,0.80
2022-07-30T15:49:21.906Z,0.60
2022-07-30T15:51:48.926Z,0.70
2022-07-30T15:54:16.023Z,0.50
2022-07-30T15:57:00.825Z,0.63
2022-07-30T15:59:28.717Z,0.60
2022-07-30T16:01:55.472Z,0.60
2022-07-30T16:04:22.253Z,0.60
2022-07-30T16:07:03.671Z,0.70
2022-07-30T16:09:30.579Z,0.73
2022-07-30T16:11:58.138Z,0.90
2022-07-30T16:14:25.282Z,0.53
2022-07-30T16:16:52.955Z,0.77
2022-07-30T16:19:20.519Z,1.50
2022-07-30T16:21:47.345Z,1.10
2022-07-30T16:24:14.914Z,0.60
2022-07-30T16:29:26.556Z,0.80
2022-07-30T16:31:54.731Z,0.70
2022-07-30T16:34:23.033Z,0.53
2022-07-30T16:36:53.465Z,0.70
2022-07-30T16:39:20.285Z,0.60
2022-07-30T16:41:47.089Z,1.00
2022-07-30T16:44:13.816Z,1.00
2022-07-30T16:46:40.766Z,1.90
2022-07-30T16:49:08.023Z,1.17
2022-07-30T16:51:35.436Z,1.07
2022-07-30T16:54:02.294Z,0.80
2022-07-30T16:56:29.067Z,0.90
2022-07-30T16:58:55.901Z,0.73
2022-07-30T17:01:23.406Z,0.60
2022-07-30T17:03:50.220Z,0.60
2022-07-30T17:06:19.729Z,0.70
2022-07-30T17:08:48.767Z,0.77
2022-07-30T17:11:48.052Z,1.00
2022-07-30T17:14:03.591Z,0.80
2022-07-30T17:19:16.586Z,0.80
2022-07-30T17:21:43.398Z,0.90
2022-07-30T17:24:13.875Z,0.67
2022-07-30T17:26:43.023Z,0.73
2022-07-30T17:29:13.877Z,0.70
2022-07-30T17:31:44.783Z,1.03
2022-07-30T17:34:13.744Z,0.90
2022-07-30T17:36:41.193Z,0.60
2022-07-30T17:42:02.774Z,0.70
2022-07-30T17:44:29.995Z,1.00
2022-07-30T17:46:56.678Z,0.93
2022-07-30T17:49:23.839Z,0.80
2022-07-30T17:51:50.702Z,1.10
2022-07-30T17:54:17.508Z,0.73
2022-07-30T17:56:44.819Z,0.80
2022-07-30T17:59:13.949Z,1.10
2022-07-30T18:04:25.468Z,0.83
2022-07-30T18:06:55.807Z,0.90
2022-07-30T18:09:23.225Z,1.03
2022-07-30T18:11:51.155Z,0.93
2022-07-30T18:14:18.015Z,1.10
2022-07-30T18:16:44.916Z,1.20
2022-07-30T18:19:22.802Z,0.80
2022-07-30T18:21:54.357Z,1.00
2022-07-30T18:27:05.532Z,0.97
2022-07-30T18:29:34.148Z,1.20
2022-07-30T18:32:01.649Z,1.10
2022-07-30T18:34:28.884Z,0.80
2022-07-30T18:36:56.178Z,0.97
2022-07-30T18:39:23.227Z,0.90
2022-07-30T18:41:49.933Z,0.93
2022-07-30T18:44:16.673Z,1.30
2022-07-30T18:46:46.158Z,1.67
2022-07-30T18:49:35.555Z,1.73
2022-07-30T18:52:03.035Z,0.90
2022-07-30T18:54:30.684Z,1.37
2022-07-30T18:57:00.209Z,1.43
2022-07-30T18:59:27.244Z,1.13
2022-07-30T19:01:54.065Z,1.13
2022-07-30T19:04:22.888Z,1.23
2022-07-30T19:06:49.604Z,1.17
2022-07-30T19:09:18.298Z,1.40
2022-07-30T19:11:48.131Z,1.43
2022-07-30T19:14:15.337Z,1.10
2022-07-30T19:16:42.476Z,1.13
2022-07-30T19:19:09.527Z,1.60
2022-07-30T19:21:36.430Z,1.40
2022-07-30T19:24:03.871Z,1.87
2022-07-30T19:26:30.816Z,1.50
2022-07-30T19:28:57.627Z,1.30
2022-07-30T19:34:10.885Z,1.23
2022-07-30T19:36:38.218Z,1.90
2022-07-30T19:39:07.651Z,1.73
2022-07-30T19:44:25.182Z,1.80
2022-07-30T19:49:40.636Z,1.73
2022-07-30T19:52:22.714Z,1.30
2022-07-30T19:54:52.995Z,2.90
2022-07-30T19:57:20.681Z,1.90
2022-07-30T19:59:59.512Z,1.60
2022-07-30T20:02:38.845Z,1.73
2022-07-30T20:05:06.529Z,1.77
2022-07-30T20:07:39.330Z,1.53
2022-07-30T20:10:07.215Z,2.80
2022-07-30T20:12:34.011Z,2.63
2022-07-30T20:15:01.932Z,1.80
2022-07-30T20:17:31.233Z,1.83
2022-07-30T20:20:01.861Z,1.77
2022-07-30T20:22:29.320Z,1.70
2022-07-30T20:24:59.240Z,1.60
2022-07-30T20:27:35.978Z,1.53
2022-07-30T20:30:04.550Z,1.53
2022-07-30T20:32:32.196Z,1.40
2022-07-30T20:34:59.275Z,1.70
2022-07-30T20:37:27.556Z,1.30
2022-07-30T20:39:55.015Z,1.27
2022-07-30T20:42:23.634Z,1.47
2022-07-30T20:44:51.481Z,1.50
2022-07-30T20:47:34.428Z,1.53
2022-07-30T20:52:57.343Z,1.67
2022-07-30T20:55:24.907Z,1.80
2022-07-30T20:57:59.351Z,1.50
2022-07-30T21:03:22.854Z,1.57
2022-07-30T21:05:51.283Z,1.50
2022-07-30T21:08:19.467Z,1.80
2022-07-30T21:10:46.941Z,1.70
2022-07-30T21:13:17.659Z,1.70
2022-07-30T21:15:45.413Z,2.27
2022-07-30T21:18:30.668Z,1.90
2022-07-30T21:20:57.856Z,1.80
2022-07-30T21:23:27.227Z,1.90
2022-07-30T21:26:02.121Z,1.83
2022-07-30T21:28:35.236Z,1.70
2022-07-30T21:31:17.700Z,1.40
2022-07-30T21:33:48.290Z,2.07
2022-07-30T21:36:15.155Z,1.60
2022-07-30T21:38:42.646Z,1.63
2022-07-30T21:43:55.919Z,3.23
2022-07-30T21:46:24.891Z,3.77
2022-07-30T21:51:41.534Z,2.90
2022-07-30T21:54:11.430Z,2.70
2022-07-30T21:56:41.550Z,2.60
2022-07-30T21:59:08.925Z,2.83
2022-07-30T22:01:38.639Z,2.67
2022-07-30T22:06:54.512Z,2.30
2022-07-30T22:09:34.122Z,2.40
2022-07-30T22:12:03.232Z,2.30
2022-07-30T22:17:37.165Z,2.40
2022-07-30T22:22:56.673Z,2.33
2022-07-30T22:28:07.647Z,2.57
2022-07-30T22:30:34.578Z,2.43
2022-07-30T22:33:08.367Z,2.50
2022-07-30T22:38:19.876Z,2.57
2022-07-30T22:43:35.525Z,2.20
2022-07-30T22:46:14.758Z,1.87
2022-07-30T22:48:54.599Z,1.47
2022-07-30T22:51:50.269Z,1.40
2022-07-30T22:54:14.817Z,1.70
2022-07-30T22:56:46.107Z,1.30
2022-07-30T22:59:13.079Z,1.87
2022-07-30T23:04:26.604Z,1.40
2022-07-30T23:06:53.500Z,1.20
2022-07-30T23:09:20.337Z,1.27
2022-07-30T23:11:49.916Z,1.10
2022-07-30T23:12:27.745Z,3.30
2022-07-30T23:12:30.877Z,1.40
2022-07-30T23:14:16.738Z,1.00
2022-07-30T23:16:43.648Z,1.30
2022-07-30T23:19:22.163Z,1.07
2022-07-30T23:21:50.199Z,1.00
2022-07-30T23:24:18.875Z,1.30
2022-07-30T23:26:48.316Z,1.00
2022-07-30T23:29:17.458Z,0.97
2022-07-30T23:31:44.134Z,1.13
2022-07-30T23:34:11.005Z,1.27
2022-07-30T23:36:38.093Z,1.20
2022-07-30T23:39:05.725Z,1.10
2022-07-30T23:41:32.453Z,1.30
2022-07-30T23:43:59.369Z,1.20
2022-07-30T23:46:26.102Z,1.00
2022-07-30T23:48:53.246Z,1.50
2022-07-30T23:51:19.922Z,1.40
2022-07-30T23:53:47.495Z,1.30
2022-07-30T23:56:15.374Z,1.60
2022-07-30T23:58:46.020Z,1.70
